Morton, Washington
Current Conditions -  °F | °C
As of 5:15 PM on Saturday 25 Oct 2014 (Local Time) from KCLS Reporting Station
Overcast Overcast  
Wind Chill: 61°   Ceiling: 3600
Heat Index: 61°   Visibility: 10mi
Dew Point: 55°   Wind: 17mph
Humidity: 82%   Direction: 180°S
Pressure: 29.3"   Gusts: 25mph
Location:  46.56°N, 122.28°W
Report Text: KCLS 260015Z AUTO 18015G22KT 10SM SCT025 BKN036 OVC050 16/13 A2930 RMK AO2
Loading
Personal Weather Stations






























Interactive Weather Map
Tropical Storm Tracking
New forecast layout! Learn more

10-Day Weather Forecast

Advertisements
Track Severe Weather on mobile